sensor_id;sensor_type;location;lat;lon;timestamp;temperature;humidity
64143;DHT22;50437;51.970;5.904;2023-08-31T00:00:14;11.80;99.90
64143;DHT22;50437;51.970;5.904;2023-08-31T00:02:41;11.90;99.90
64143;DHT22;50437;51.970;5.904;2023-08-31T00:05:08;11.80;99.90
64143;DHT22;50437;51.970;5.904;2023-08-31T00:07:34;11.70;99.90
64143;DHT22;50437;51.970;5.904;2023-08-31T00:10:00;11.80;99.90
64143;DHT22;50437;51.970;5.904;2023-08-31T00:12:32;11.80;99.90
64143;DHT22;50437;51.970;5.904;2023-08-31T00:14:58;11.70;99.90
64143;DHT22;50437;51.970;5.904;2023-08-31T00:17:24;11.60;99.90
64143;DHT22;50437;51.970;5.904;2023-08-31T00:19:50;11.70;99.90
64143;DHT22;50437;51.970;5.904;2023-08-31T00:22:16;11.60;99.90
64143;DHT22;50437;51.970;5.904;2023-08-31T00:24:42;11.60;99.90
64143;DHT22;50437;51.970;5.904;2023-08-31T00:27:08;11.60;99.90
64143;DHT22;50437;51.970;5.904;2023-08-31T00:29:36;11.70;99.90
64143;DHT22;50437;51.970;5.904;2023-08-31T00:32:04;11.70;99.90
64143;DHT22;50437;51.970;5.904;2023-08-31T00:34:31;11.60;99.90
64143;DHT22;50437;51.970;5.904;2023-08-31T00:36:58;11.60;99.90
64143;DHT22;50437;51.970;5.904;2023-08-31T00:39:24;11.60;99.90
64143;DHT22;50437;51.970;5.904;2023-08-31T00:41:52;11.70;99.90
64143;DHT22;50437;51.970;5.904;2023-08-31T00:44:18;11.60;99.90
64143;DHT22;50437;51.970;5.904;2023-08-31T00:46:48;11.60;99.90
64143;DHT22;50437;51.970;5.904;2023-08-31T00:49:14;11.60;99.90
64143;DHT22;50437;51.970;5.904;2023-08-31T00:51:42;11.50;99.90
64143;DHT22;50437;51.970;5.904;2023-08-31T00:54:08;11.50;99.90
64143;DHT22;50437;51.970;5.904;2023-08-31T00:56:35;11.50;99.90
64143;DHT22;50437;51.970;5.904;2023-08-31T00:59:01;11.50;99.90
64143;DHT22;50437;51.970;5.904;2023-08-31T01:01:36;11.50;99.90
64143;DHT22;50437;51.970;5.904;2023-08-31T01:04:24;11.50;99.90
64143;DHT22;50437;51.970;5.904;2023-08-31T01:09:36;11.50;99.90
64143;DHT22;50437;51.970;5.904;2023-08-31T01:12:06;11.50;99.90
64143;DHT22;50437;51.970;5.904;2023-08-31T01:14:38;11.50;99.90
64143;DHT22;50437;51.970;5.904;2023-08-31T01:17:08;11.50;99.90
64143;DHT22;50437;51.970;5.904;2023-08-31T01:22:11;11.50;99.90
64143;DHT22;50437;51.970;5.904;2023-08-31T01:24:39;11.50;99.90
64143;DHT22;50437;51.970;5.904;2023-08-31T01:27:06;11.40;99.90
64143;DHT22;50437;51.970;5.904;2023-08-31T01:29:33;11.40;99.90
64143;DHT22;50437;51.970;5.904;2023-08-31T01:31:59;11.40;99.90
64143;DHT22;50437;51.970;5.904;2023-08-31T01:34:26;11.40;99.90
64143;DHT22;50437;51.970;5.904;2023-08-31T01:36:53;11.40;99.90
64143;DHT22;50437;51.970;5.904;2023-08-31T01:42:09;11.40;99.90
64143;DHT22;50437;51.970;5.904;2023-08-31T01:44:36;11.40;99.90
64143;DHT22;50437;51.970;5.904;2023-08-31T01:47:04;11.50;99.90
64143;DHT22;50437;51.970;5.904;2023-08-31T01:49:37;11.50;99.90
64143;DHT22;50437;51.970;5.904;2023-08-31T01:52:03;11.60;99.90
64143;DHT22;50437;51.970;5.904;2023-08-31T01:54:30;11.70;99.90
64143;DHT22;50437;51.970;5.904;2023-08-31T01:56:56;11.70;99.90
64143;DHT22;50437;51.970;5.904;2023-08-31T01:59:22;11.70;99.90
64143;DHT22;50437;51.970;5.904;2023-08-31T02:01:49;11.70;99.90
64143;DHT22;50437;51.970;5.904;2023-08-31T02:04:15;11.70;99.90
64143;DHT22;50437;51.970;5.904;2023-08-31T02:06:41;11.70;99.90
64143;DHT22;50437;51.970;5.904;2023-08-31T02:09:07;11.80;99.90
64143;DHT22;50437;51.970;5.904;2023-08-31T02:11:33;11.80;99.90
64143;DHT22;50437;51.970;5.904;2023-08-31T02:14:04;11.70;99.90
64143;DHT22;50437;51.970;5.904;2023-08-31T02:16:31;11.70;99.90
64143;DHT22;50437;51.970;5.904;2023-08-31T02:18:58;11.80;99.90
64143;DHT22;50437;51.970;5.904;2023-08-31T02:21:24;11.80;99.90
64143;DHT22;50437;51.970;5.904;2023-08-31T02:23:52;11.80;99.90
64143;DHT22;50437;51.970;5.904;2023-08-31T02:26:18;11.80;99.90
64143;DHT22;50437;51.970;5.904;2023-08-31T02:28:46;11.80;99.90
64143;DHT22;50437;51.970;5.904;2023-08-31T02:31:16;11.80;99.90
64143;DHT22;50437;51.970;5.904;2023-08-31T02:33:45;11.80;99.90
64143;DHT22;50437;51.970;5.904;2023-08-31T02:36:14;11.80;99.90
64143;DHT22;50437;51.970;5.904;2023-08-31T02:38:42;11.80;99.90
64143;DHT22;50437;51.970;5.904;2023-08-31T02:41:08;11.80;99.90
64143;DHT22;50437;51.970;5.904;2023-08-31T02:43:36;12.00;99.90
64143;DHT22;50437;51.970;5.904;2023-08-31T02:46:02;11.90;99.90
64143;DHT22;50437;51.970;5.904;2023-08-31T02:48:29;11.90;99.90
64143;DHT22;50437;51.970;5.904;2023-08-31T02:50:58;11.90;99.90
64143;DHT22;50437;51.970;5.904;2023-08-31T02:53:29;11.90;99.90
64143;DHT22;50437;51.970;5.904;2023-08-31T02:55:58;11.80;99.90
64143;DHT22;50437;51.970;5.904;2023-08-31T02:58:24;11.90;99.90
64143;DHT22;50437;51.970;5.904;2023-08-31T03:00:50;12.00;99.90
64143;DHT22;50437;51.970;5.904;2023-08-31T03:03:17;12.10;99.90
64143;DHT22;50437;51.970;5.904;2023-08-31T03:05:45;12.20;99.90
64143;DHT22;50437;51.970;5.904;2023-08-31T03:08:11;12.20;99.90
64143;DHT22;50437;51.970;5.904;2023-08-31T03:10:38;12.40;99.90
64143;DHT22;50437;51.970;5.904;2023-08-31T03:13:04;12.30;99.90
64143;DHT22;50437;51.970;5.904;2023-08-31T03:15:33;12.40;99.90
64143;DHT22;50437;51.970;5.904;2023-08-31T03:18:00;12.40;99.90
64143;DHT22;50437;51.970;5.904;2023-08-31T03:20:26;12.50;99.90
64143;DHT22;50437;51.970;5.904;2023-08-31T03:22:52;12.40;99.90
64143;DHT22;50437;51.970;5.904;2023-08-31T03:25:18;12.50;99.90
64143;DHT22;50437;51.970;5.904;2023-08-31T03:27:44;12.50;99.90
64143;DHT22;50437;51.970;5.904;2023-08-31T03:30:11;12.40;99.90
64143;DHT22;50437;51.970;5.904;2023-08-31T03:32:38;12.50;99.90
64143;DHT22;50437;51.970;5.904;2023-08-31T03:35:04;12.50;99.90
64143;DHT22;50437;51.970;5.904;2023-08-31T03:37:30;12.40;99.90
64143;DHT22;50437;51.970;5.904;2023-08-31T03:39:56;12.40;99.90
64143;DHT22;50437;51.970;5.904;2023-08-31T03:42:23;12.50;99.90
64143;DHT22;50437;51.970;5.904;2023-08-31T03:44:49;12.40;99.90
64143;DHT22;50437;51.970;5.904;2023-08-31T03:47:16;12.40;99.90
64143;DHT22;50437;51.970;5.904;2023-08-31T03:49:42;12.20;99.90
64143;DHT22;50437;51.970;5.904;2023-08-31T03:52:08;12.20;99.90
64143;DHT22;50437;51.970;5.904;2023-08-31T03:54:35;12.00;99.90
64143;DHT22;50437;51.970;5.904;2023-08-31T03:57:02;12.10;99.90
64143;DHT22;50437;51.970;5.904;2023-08-31T03:59:29;12.00;99.90
64143;DHT22;50437;51.970;5.904;2023-08-31T04:01:56;12.00;99.90
64143;DHT22;50437;51.970;5.904;2023-08-31T04:04:22;12.00;99.90
64143;DHT22;50437;51.970;5.904;2023-08-31T04:06:48;12.10;99.90
64143;DHT22;50437;51.970;5.904;2023-08-31T04:09:15;12.00;99.90
64143;DHT22;50437;51.970;5.904;2023-08-31T04:11:41;12.10;99.90
64143;DHT22;50437;51.970;5.904;2023-08-31T04:14:07;12.10;99.90
64143;DHT22;50437;51.970;5.904;2023-08-31T04:16:33;12.10;99.90
64143;DHT22;50437;51.970;5.904;2023-08-31T04:18:59;12.00;99.90
64143;DHT22;50437;51.970;5.904;2023-08-31T04:21:25;12.00;99.90
64143;DHT22;50437;51.970;5.904;2023-08-31T04:23:51;12.00;99.90
64143;DHT22;50437;51.970;5.904;2023-08-31T04:26:17;12.10;99.90
64143;DHT22;50437;51.970;5.904;2023-08-31T04:28:43;12.00;99.90
64143;DHT22;50437;51.970;5.904;2023-08-31T04:31:09;12.00;99.90
64143;DHT22;50437;51.970;5.904;2023-08-31T04:33:37;12.00;99.90
64143;DHT22;50437;51.970;5.904;2023-08-31T04:36:03;12.10;99.90
64143;DHT22;50437;51.970;5.904;2023-08-31T04:38:30;12.10;99.90
64143;DHT22;50437;51.970;5.904;2023-08-31T04:41:00;12.10;99.90
64143;DHT22;50437;51.970;5.904;2023-08-31T04:43:27;12.10;99.90
64143;DHT22;50437;51.970;5.904;2023-08-31T04:45:53;12.10;99.90
64143;DHT22;50437;51.970;5.904;2023-08-31T04:48:19;12.10;99.90
64143;DHT22;50437;51.970;5.904;2023-08-31T04:50:45;12.20;99.90
64143;DHT22;50437;51.970;5.904;2023-08-31T04:53:12;12.30;99.90
64143;DHT22;50437;51.970;5.904;2023-08-31T04:55:38;12.30;99.90
64143;DHT22;50437;51.970;5.904;2023-08-31T04:58:05;12.30;99.90
64143;DHT22;50437;51.970;5.904;2023-08-31T05:00:31;12.30;99.90
64143;DHT22;50437;51.970;5.904;2023-08-31T05:02:57;12.40;99.90
64143;DHT22;50437;51.970;5.904;2023-08-31T05:05:23;12.30;99.90
64143;DHT22;50437;51.970;5.904;2023-08-31T05:07:49;12.30;99.90
64143;DHT22;50437;51.970;5.904;2023-08-31T05:10:15;12.30;99.90
64143;DHT22;50437;51.970;5.904;2023-08-31T05:12:42;12.30;99.90
64143;DHT22;50437;51.970;5.904;2023-08-31T05:15:09;12.30;99.90
64143;DHT22;50437;51.970;5.904;2023-08-31T05:17:35;12.40;99.90
64143;DHT22;50437;51.970;5.904;2023-08-31T05:20:01;12.40;99.90
64143;DHT22;50437;51.970;5.904;2023-08-31T05:22:30;12.40;99.90
64143;DHT22;50437;51.970;5.904;2023-08-31T05:24:56;12.40;99.90
64143;DHT22;50437;51.970;5.904;2023-08-31T05:27:22;12.40;99.90
64143;DHT22;50437;51.970;5.904;2023-08-31T05:29:48;12.40;99.90
64143;DHT22;50437;51.970;5.904;2023-08-31T05:32:15;12.40;99.90
64143;DHT22;50437;51.970;5.904;2023-08-31T05:34:41;12.40;99.90
64143;DHT22;50437;51.970;5.904;2023-08-31T05:37:07;12.40;99.90
64143;DHT22;50437;51.970;5.904;2023-08-31T05:39:33;12.40;99.90
64143;DHT22;50437;51.970;5.904;2023-08-31T05:41:59;12.50;99.90
64143;DHT22;50437;51.970;5.904;2023-08-31T05:44:25;12.40;99.90
64143;DHT22;50437;51.970;5.904;2023-08-31T05:46:51;12.40;99.90
64143;DHT22;50437;51.970;5.904;2023-08-31T05:49:18;12.50;99.90
64143;DHT22;50437;51.970;5.904;2023-08-31T05:51:44;12.50;99.90
64143;DHT22;50437;51.970;5.904;2023-08-31T05:54:10;12.50;99.90
64143;DHT22;50437;51.970;5.904;2023-08-31T05:56:38;12.50;99.90
64143;DHT22;50437;51.970;5.904;2023-08-31T05:59:07;12.50;99.90
64143;DHT22;50437;51.970;5.904;2023-08-31T06:01:35;12.50;99.90
64143;DHT22;50437;51.970;5.904;2023-08-31T06:04:02;12.50;99.90
64143;DHT22;50437;51.970;5.904;2023-08-31T06:06:29;12.60;99.90
64143;DHT22;50437;51.970;5.904;2023-08-31T06:08:55;12.50;99.90
64143;DHT22;50437;51.970;5.904;2023-08-31T06:11:22;12.60;99.90
64143;DHT22;50437;51.970;5.904;2023-08-31T06:13:48;12.60;99.90
64143;DHT22;50437;51.970;5.904;2023-08-31T06:16:14;12.70;99.90
64143;DHT22;50437;51.970;5.904;2023-08-31T06:18:41;12.80;99.90
64143;DHT22;50437;51.970;5.904;2023-08-31T06:21:07;12.70;99.90
64143;DHT22;50437;51.970;5.904;2023-08-31T06:23:33;12.70;99.90
64143;DHT22;50437;51.970;5.904;2023-08-31T06:25:59;12.80;99.90
64143;DHT22;50437;51.970;5.904;2023-08-31T06:28:25;12.80;99.90
64143;DHT22;50437;51.970;5.904;2023-08-31T06:30:51;12.80;99.90
64143;DHT22;50437;51.970;5.904;2023-08-31T06:33:17;12.80;99.90
64143;DHT22;50437;51.970;5.904;2023-08-31T06:35:47;12.80;99.90
64143;DHT22;50437;51.970;5.904;2023-08-31T06:38:17;12.80;99.90
64143;DHT22;50437;51.970;5.904;2023-08-31T06:40:44;13.00;99.90
64143;DHT22;50437;51.970;5.904;2023-08-31T06:43:10;13.30;99.90
64143;DHT22;50437;51.970;5.904;2023-08-31T06:45:36;13.40;99.90
64143;DHT22;50437;51.970;5.904;2023-08-31T06:48:02;13.70;99.90
64143;DHT22;50437;51.970;5.904;2023-08-31T06:50:28;13.40;99.90
64143;DHT22;50437;51.970;5.904;2023-08-31T06:52:54;13.30;99.90
64143;DHT22;50437;51.970;5.904;2023-08-31T06:55:21;13.20;99.90
64143;DHT22;50437;51.970;5.904;2023-08-31T06:57:48;13.00;99.90
64143;DHT22;50437;51.970;5.904;2023-08-31T07:00:14;13.10;99.90
64143;DHT22;50437;51.970;5.904;2023-08-31T07:02:40;13.10;99.90
64143;DHT22;50437;51.970;5.904;2023-08-31T07:05:07;13.10;99.90
64143;DHT22;50437;51.970;5.904;2023-08-31T07:07:34;13.10;99.90
64143;DHT22;50437;51.970;5.904;2023-08-31T07:10:00;13.20;99.90
64143;DHT22;50437;51.970;5.904;2023-08-31T07:12:26;13.20;99.90
64143;DHT22;50437;51.970;5.904;2023-08-31T07:14:53;13.40;99.90
64143;DHT22;50437;51.970;5.904;2023-08-31T07:17:19;13.50;99.90
64143;DHT22;50437;51.970;5.904;2023-08-31T07:19:45;13.70;99.90
64143;DHT22;50437;51.970;5.904;2023-08-31T07:22:11;13.60;99.90
64143;DHT22;50437;51.970;5.904;2023-08-31T07:24:37;13.60;99.90
64143;DHT22;50437;51.970;5.904;2023-08-31T07:27:04;13.50;99.90
64143;DHT22;50437;51.970;5.904;2023-08-31T07:29:33;13.60;99.90
64143;DHT22;50437;51.970;5.904;2023-08-31T07:31:59;13.50;99.90
64143;DHT22;50437;51.970;5.904;2023-08-31T07:34:25;13.40;99.90
64143;DHT22;50437;51.970;5.904;2023-08-31T07:36:52;13.40;99.90
64143;DHT22;50437;51.970;5.904;2023-08-31T07:39:18;13.40;99.90
64143;DHT22;50437;51.970;5.904;2023-08-31T07:41:44;13.50;99.90
64143;DHT22;50437;51.970;5.904;2023-08-31T07:44:10;13.50;99.90
64143;DHT22;50437;51.970;5.904;2023-08-31T07:46:36;13.80;99.90
64143;DHT22;50437;51.970;5.904;2023-08-31T07:49:02;14.10;99.90
64143;DHT22;50437;51.970;5.904;2023-08-31T07:51:29;14.20;99.90
64143;DHT22;50437;51.970;5.904;2023-08-31T07:53:56;14.00;99.90
64143;DHT22;50437;51.970;5.904;2023-08-31T07:56:22;13.70;99.90
64143;DHT22;50437;51.970;5.904;2023-08-31T07:58:49;13.70;99.90
64143;DHT22;50437;51.970;5.904;2023-08-31T08:01:15;13.60;99.90
64143;DHT22;50437;51.970;5.904;2023-08-31T08:03:44;13.70;99.90
64143;DHT22;50437;51.970;5.904;2023-08-31T08:06:10;13.70;99.90
64143;DHT22;50437;51.970;5.904;2023-08-31T08:08:36;13.60;99.90
64143;DHT22;50437;51.970;5.904;2023-08-31T08:11:03;13.60;99.90
64143;DHT22;50437;51.970;5.904;2023-08-31T08:13:30;13.70;99.90
64143;DHT22;50437;51.970;5.904;2023-08-31T08:15:56;13.70;99.90
64143;DHT22;50437;51.970;5.904;2023-08-31T08:18:22;13.80;99.90
64143;DHT22;50437;51.970;5.904;2023-08-31T08:20:48;13.90;99.90
64143;DHT22;50437;51.970;5.904;2023-08-31T08:23:15;13.90;99.90
64143;DHT22;50437;51.970;5.904;2023-08-31T08:25:41;14.00;99.90
64143;DHT22;50437;51.970;5.904;2023-08-31T08:28:07;14.20;99.90
64143;DHT22;50437;51.970;5.904;2023-08-31T08:30:33;14.10;99.90
64143;DHT22;50437;51.970;5.904;2023-08-31T08:32:59;14.40;99.90
64143;DHT22;50437;51.970;5.904;2023-08-31T08:35:25;14.90;99.90
64143;DHT22;50437;51.970;5.904;2023-08-31T08:37:52;15.50;99.90
64143;DHT22;50437;51.970;5.904;2023-08-31T08:40:18;15.80;99.90
64143;DHT22;50437;51.970;5.904;2023-08-31T08:42:45;15.90;99.90
64143;DHT22;50437;51.970;5.904;2023-08-31T08:45:13;15.50;99.90
64143;DHT22;50437;51.970;5.904;2023-08-31T08:47:42;15.40;99.90
64143;DHT22;50437;51.970;5.904;2023-08-31T08:50:08;16.30;99.90
64143;DHT22;50437;51.970;5.904;2023-08-31T08:52:34;16.40;99.90
64143;DHT22;50437;51.970;5.904;2023-08-31T08:55:01;15.90;99.90
64143;DHT22;50437;51.970;5.904;2023-08-31T08:57:27;15.90;99.90
64143;DHT22;50437;51.970;5.904;2023-08-31T08:59:53;15.90;99.90
64143;DHT22;50437;51.970;5.904;2023-08-31T09:02:19;16.20;99.90
64143;DHT22;50437;51.970;5.904;2023-08-31T09:04:48;17.40;99.90
64143;DHT22;50437;51.970;5.904;2023-08-31T09:07:14;18.60;99.90
64143;DHT22;50437;51.970;5.904;2023-08-31T09:09:53;18.80;99.90
64143;DHT22;50437;51.970;5.904;2023-08-31T09:12:23;18.10;99.90
64143;DHT22;50437;51.970;5.904;2023-08-31T09:14:59;17.70;99.90
64143;DHT22;50437;51.970;5.904;2023-08-31T09:17:26;17.20;99.90
64143;DHT22;50437;51.970;5.904;2023-08-31T09:19:59;18.40;99.90
64143;DHT22;50437;51.970;5.904;2023-08-31T09:22:26;18.00;99.90
64143;DHT22;50437;51.970;5.904;2023-08-31T09:24:52;18.10;99.90
64143;DHT22;50437;51.970;5.904;2023-08-31T09:27:19;18.80;99.90
64143;DHT22;50437;51.970;5.904;2023-08-31T09:29:46;19.40;99.90
64143;DHT22;50437;51.970;5.904;2023-08-31T09:32:18;20.10;99.90
64143;DHT22;50437;51.970;5.904;2023-08-31T09:34:45;19.10;99.90
64143;DHT22;50437;51.970;5.904;2023-08-31T09:37:11;18.70;99.90
64143;DHT22;50437;51.970;5.904;2023-08-31T09:39:38;18.20;99.90
64143;DHT22;50437;51.970;5.904;2023-08-31T09:42:04;18.80;99.90
64143;DHT22;50437;51.970;5.904;2023-08-31T09:44:31;19.20;99.90
64143;DHT22;50437;51.970;5.904;2023-08-31T09:46:57;19.90;99.90
64143;DHT22;50437;51.970;5.904;2023-08-31T09:49:24;20.10;99.90
64143;DHT22;50437;51.970;5.904;2023-08-31T09:51:50;19.90;99.90
64143;DHT22;50437;51.970;5.904;2023-08-31T09:54:20;20.80;99.90
64143;DHT22;50437;51.970;5.904;2023-08-31T09:56:48;21.00;99.90
64143;DHT22;50437;51.970;5.904;2023-08-31T09:59:15;21.60;99.90
64143;DHT22;50437;51.970;5.904;2023-08-31T10:01:41;20.70;99.90
64143;DHT22;50437;51.970;5.904;2023-08-31T10:04:08;21.50;99.90
64143;DHT22;50437;51.970;5.904;2023-08-31T10:06:35;21.00;99.90
64143;DHT22;50437;51.970;5.904;2023-08-31T10:09:02;20.40;99.90
64143;DHT22;50437;51.970;5.904;2023-08-31T10:11:29;19.40;99.90
64143;DHT22;50437;51.970;5.904;2023-08-31T10:13:56;18.90;99.90
64143;DHT22;50437;51.970;5.904;2023-08-31T10:16:24;18.50;99.90
64143;DHT22;50437;51.970;5.904;2023-08-31T10:18:50;18.50;99.90
64143;DHT22;50437;51.970;5.904;2023-08-31T10:21:18;18.30;99.90
64143;DHT22;50437;51.970;5.904;2023-08-31T10:23:45;18.20;99.90
64143;DHT22;50437;51.970;5.904;2023-08-31T10:26:11;18.10;99.90
64143;DHT22;50437;51.970;5.904;2023-08-31T10:28:41;17.90;99.90
64143;DHT22;50437;51.970;5.904;2023-08-31T10:31:17;17.80;99.90
64143;DHT22;50437;51.970;5.904;2023-08-31T10:33:44;17.60;99.90
64143;DHT22;50437;51.970;5.904;2023-08-31T10:36:12;17.50;99.90
64143;DHT22;50437;51.970;5.904;2023-08-31T10:38:38;17.80;99.90
64143;DHT22;50437;51.970;5.904;2023-08-31T10:44:17;18.50;99.90
64143;DHT22;50437;51.970;5.904;2023-08-31T10:46:34;18.20;99.90
64143;DHT22;50437;51.970;5.904;2023-08-31T10:51:36;18.80;99.90
64143;DHT22;50437;51.970;5.904;2023-08-31T10:54:06;19.40;99.90
64143;DHT22;50437;51.970;5.904;2023-08-31T10:56:38;19.40;99.90
64143;DHT22;50437;51.970;5.904;2023-08-31T10:59:04;20.20;99.90
64143;DHT22;50437;51.970;5.904;2023-08-31T11:01:51;21.50;99.90
64143;DHT22;50437;51.970;5.904;2023-08-31T11:04:17;22.10;99.90
64143;DHT22;50437;51.970;5.904;2023-08-31T11:06:43;21.80;99.90
64143;DHT22;50437;51.970;5.904;2023-08-31T11:09:18;21.80;99.90
64143;DHT22;50437;51.970;5.904;2023-08-31T11:11:44;22.20;99.90
64143;DHT22;50437;51.970;5.904;2023-08-31T11:14:11;21.90;99.90
64143;DHT22;50437;51.970;5.904;2023-08-31T11:16:40;22.10;99.90
64143;DHT22;50437;51.970;5.904;2023-08-31T11:19:06;22.50;99.90
64143;DHT22;50437;51.970;5.904;2023-08-31T11:21:32;23.10;99.90
64143;DHT22;50437;51.970;5.904;2023-08-31T11:23:59;23.70;99.90
64143;DHT22;50437;51.970;5.904;2023-08-31T11:26:25;23.40;99.90
64143;DHT22;50437;51.970;5.904;2023-08-31T11:28:52;23.40;99.90
64143;DHT22;50437;51.970;5.904;2023-08-31T11:31:24;23.30;99.90
64143;DHT22;50437;51.970;5.904;2023-08-31T11:33:50;23.00;99.90
64143;DHT22;50437;51.970;5.904;2023-08-31T11:36:16;23.90;99.90
64143;DHT22;50437;51.970;5.904;2023-08-31T11:38:43;23.90;99.90
64143;DHT22;50437;51.970;5.904;2023-08-31T11:41:10;23.50;99.90
64143;DHT22;50437;51.970;5.904;2023-08-31T11:43:36;22.60;99.90
64143;DHT22;50437;51.970;5.904;2023-08-31T11:46:03;22.60;99.90
64143;DHT22;50437;51.970;5.904;2023-08-31T11:48:30;21.70;99.90
64143;DHT22;50437;51.970;5.904;2023-08-31T11:50:57;22.10;99.90
64143;DHT22;50437;51.970;5.904;2023-08-31T11:53:23;21.90;99.90
64143;DHT22;50437;51.970;5.904;2023-08-31T11:55:50;22.10;99.90
64143;DHT22;50437;51.970;5.904;2023-08-31T11:58:17;21.90;99.90
64143;DHT22;50437;51.970;5.904;2023-08-31T12:00:43;22.60;99.90
64143;DHT22;50437;51.970;5.904;2023-08-31T12:03:09;22.10;99.90
64143;DHT22;50437;51.970;5.904;2023-08-31T12:05:45;22.30;99.90
64143;DHT22;50437;51.970;5.904;2023-08-31T12:08:11;22.20;99.90
64143;DHT22;50437;51.970;5.904;2023-08-31T12:10:41;22.00;99.90
64143;DHT22;50437;51.970;5.904;2023-08-31T12:13:11;22.10;99.90
64143;DHT22;50437;51.970;5.904;2023-08-31T12:15:37;22.20;99.90
64143;DHT22;50437;51.970;5.904;2023-08-31T12:18:10;22.00;99.90
64143;DHT22;50437;51.970;5.904;2023-08-31T12:20:43;22.10;99.90
64143;DHT22;50437;51.970;5.904;2023-08-31T12:23:10;22.20;99.90
64143;DHT22;50437;51.970;5.904;2023-08-31T12:25:36;22.10;99.90
64143;DHT22;50437;51.970;5.904;2023-08-31T12:28:02;21.90;99.90
64143;DHT22;50437;51.970;5.904;2023-08-31T12:30:29;21.90;99.90
64143;DHT22;50437;51.970;5.904;2023-08-31T12:32:55;22.20;99.90
64143;DHT22;50437;51.970;5.904;2023-08-31T12:35:23;22.20;99.90
64143;DHT22;50437;51.970;5.904;2023-08-31T12:37:49;22.00;99.90
64143;DHT22;50437;51.970;5.904;2023-08-31T12:40:16;21.80;99.90
64143;DHT22;50437;51.970;5.904;2023-08-31T12:42:45;20.90;99.90
64143;DHT22;50437;51.970;5.904;2023-08-31T12:45:11;21.10;99.90
64143;DHT22;50437;51.970;5.904;2023-08-31T12:47:37;21.20;99.90
64143;DHT22;50437;51.970;5.904;2023-08-31T12:50:03;21.40;99.90
64143;DHT22;50437;51.970;5.904;2023-08-31T12:52:29;22.00;99.90
64143;DHT22;50437;51.970;5.904;2023-08-31T12:54:56;21.80;99.90
64143;DHT22;50437;51.970;5.904;2023-08-31T12:57:22;21.80;99.90
64143;DHT22;50437;51.970;5.904;2023-08-31T12:59:48;21.70;99.90
64143;DHT22;50437;51.970;5.904;2023-08-31T13:02:14;21.80;99.90
64143;DHT22;50437;51.970;5.904;2023-08-31T13:04:40;21.50;99.90
64143;DHT22;50437;51.970;5.904;2023-08-31T13:07:06;21.20;99.90
64143;DHT22;50437;51.970;5.904;2023-08-31T13:09:32;21.40;99.90
64143;DHT22;50437;51.970;5.904;2023-08-31T13:11:58;21.00;99.90
64143;DHT22;50437;51.970;5.904;2023-08-31T13:14:24;20.60;99.90
64143;DHT22;50437;51.970;5.904;2023-08-31T13:16:53;20.60;99.90
64143;DHT22;50437;51.970;5.904;2023-08-31T13:19:19;20.80;99.90
64143;DHT22;50437;51.970;5.904;2023-08-31T13:21:45;20.70;99.90
64143;DHT22;50437;51.970;5.904;2023-08-31T13:24:11;21.20;99.90
64143;DHT22;50437;51.970;5.904;2023-08-31T13:26:37;21.00;99.90
64143;DHT22;50437;51.970;5.904;2023-08-31T13:29:03;21.20;99.90
64143;DHT22;50437;51.970;5.904;2023-08-31T13:31:30;21.60;99.90
64143;DHT22;50437;51.970;5.904;2023-08-31T13:33:56;21.30;99.90
64143;DHT22;50437;51.970;5.904;2023-08-31T13:36:23;20.90;99.90
64143;DHT22;50437;51.970;5.904;2023-08-31T13:38:49;20.90;99.90
64143;DHT22;50437;51.970;5.904;2023-08-31T13:41:15;20.70;99.90
64143;DHT22;50437;51.970;5.904;2023-08-31T13:43:41;20.60;99.90
64143;DHT22;50437;51.970;5.904;2023-08-31T13:46:07;20.80;99.90
64143;DHT22;50437;51.970;5.904;2023-08-31T13:48:33;21.00;99.90
64143;DHT22;50437;51.970;5.904;2023-08-31T13:50:59;20.80;99.90
64143;DHT22;50437;51.970;5.904;2023-08-31T13:53:25;20.60;99.90
64143;DHT22;50437;51.970;5.904;2023-08-31T13:55:51;20.60;99.90
64143;DHT22;50437;51.970;5.904;2023-08-31T13:58:17;20.40;99.90
64143;DHT22;50437;51.970;5.904;2023-08-31T14:00:43;20.50;99.90
64143;DHT22;50437;51.970;5.904;2023-08-31T14:03:10;20.90;99.90
64143;DHT22;50437;51.970;5.904;2023-08-31T14:05:36;21.10;99.90
64143;DHT22;50437;51.970;5.904;2023-08-31T14:08:02;21.20;99.90
64143;DHT22;50437;51.970;5.904;2023-08-31T14:10:33;21.40;99.90
64143;DHT22;50437;51.970;5.904;2023-08-31T14:12:59;21.40;99.90
64143;DHT22;50437;51.970;5.904;2023-08-31T14:15:28;21.40;99.90
64143;DHT22;50437;51.970;5.904;2023-08-31T14:17:55;21.30;99.90
64143;DHT22;50437;51.970;5.904;2023-08-31T14:20:21;21.50;99.90
64143;DHT22;50437;51.970;5.904;2023-08-31T14:22:48;21.40;99.90
64143;DHT22;50437;51.970;5.904;2023-08-31T14:25:14;21.30;99.90
64143;DHT22;50437;51.970;5.904;2023-08-31T14:27:40;21.60;99.90
64143;DHT22;50437;51.970;5.904;2023-08-31T14:30:06;21.70;99.90
64143;DHT22;50437;51.970;5.904;2023-08-31T14:32:33;21.50;99.90
64143;DHT22;50437;51.970;5.904;2023-08-31T14:35:00;21.10;99.90
64143;DHT22;50437;51.970;5.904;2023-08-31T14:37:26;21.00;99.90
64143;DHT22;50437;51.970;5.904;2023-08-31T14:39:52;20.80;99.90
64143;DHT22;50437;51.970;5.904;2023-08-31T14:42:21;21.20;99.90
64143;DHT22;50437;51.970;5.904;2023-08-31T14:44:47;20.90;99.90
64143;DHT22;50437;51.970;5.904;2023-08-31T14:47:14;20.60;99.90
64143;DHT22;50437;51.970;5.904;2023-08-31T14:49:40;20.60;99.90
64143;DHT22;50437;51.970;5.904;2023-08-31T14:52:06;20.60;99.90
64143;DHT22;50437;51.970;5.904;2023-08-31T14:54:33;20.40;99.90
64143;DHT22;50437;51.970;5.904;2023-08-31T14:56:59;20.80;99.90
64143;DHT22;50437;51.970;5.904;2023-08-31T14:59:25;21.00;99.90
64143;DHT22;50437;51.970;5.904;2023-08-31T15:01:51;20.70;99.90
64143;DHT22;50437;51.970;5.904;2023-08-31T15:04:17;20.40;99.90
64143;DHT22;50437;51.970;5.904;2023-08-31T15:06:43;20.70;99.90
64143;DHT22;50437;51.970;5.904;2023-08-31T15:09:10;21.10;99.90
64143;DHT22;50437;51.970;5.904;2023-08-31T15:11:36;21.00;99.90
64143;DHT22;50437;51.970;5.904;2023-08-31T15:14:02;20.40;99.90
64143;DHT22;50437;51.970;5.904;2023-08-31T15:16:30;20.40;99.90
64143;DHT22;50437;51.970;5.904;2023-08-31T15:18:56;20.30;99.90
64143;DHT22;50437;51.970;5.904;2023-08-31T15:21:22;20.20;99.90
64143;DHT22;50437;51.970;5.904;2023-08-31T15:23:48;20.20;99.90
64143;DHT22;50437;51.970;5.904;2023-08-31T15:26:15;20.30;99.90
64143;DHT22;50437;51.970;5.904;2023-08-31T15:28:43;20.30;99.90
64143;DHT22;50437;51.970;5.904;2023-08-31T15:31:12;20.10;99.90
64143;DHT22;50437;51.970;5.904;2023-08-31T15:33:39;20.20;99.90
64143;DHT22;50437;51.970;5.904;2023-08-31T15:36:05;20.30;99.90
64143;DHT22;50437;51.970;5.904;2023-08-31T15:38:32;20.20;99.90
64143;DHT22;50437;51.970;5.904;2023-08-31T15:40:59;20.10;99.90